Terminal Aerodrome Forecast
Issued by NWS Portland, ME

Home | Current Version | Previous Version | Text Only | Print | Product List | Glossary On
Versions: 1 2 3 4 5 6 7 8 9 10 11 12 13 14 15 16 17 18 19
000
FTUS41 KGYX 252334
TAFPWM
TAF
KPWM 252334Z 2600/2624 18005KT P6SM SCT080 BKN120
      TEMPO 2600/2603 SCT120
     FM260300 18008KT P6SM -SHRA SCT050 BKN080 OVC120
     FM261200 22010KT P6SM SCT080 BKN120
     FM261600 22012G18KT P6SM SCT080 SCT120=

USA.gov is the U.S. government's official web portal to all federal, state and local government web resources and services.